sensor_id;sensor_type;location;lat;lon;timestamp;P1;durP1;ratioP1;P2;durP2;ratioP2
77409;SDS011;66481;51.332;22.804;2023-07-31T00:03:20;8.55;;;7.00;;
77409;SDS011;66481;51.332;22.804;2023-07-31T00:07:20;7.55;;;6.15;;
77409;SDS011;66481;51.332;22.804;2023-07-31T00:11:23;9.73;;;7.20;;
77409;SDS011;66481;51.332;22.804;2023-07-31T00:15:24;9.52;;;7.63;;
77409;SDS011;66481;51.332;22.804;2023-07-31T00:19:25;9.02;;;7.00;;
77409;SDS011;66481;51.332;22.804;2023-07-31T00:23:26;7.57;;;6.85;;
77409;SDS011;66481;51.332;22.804;2023-07-31T00:27:27;7.13;;;6.43;;
77409;SDS011;66481;51.332;22.804;2023-07-31T00:31:28;10.73;;;7.00;;
77409;SDS011;66481;51.332;22.804;2023-07-31T00:35:29;8.73;;;6.28;;
77409;SDS011;66481;51.332;22.804;2023-07-31T00:39:30;6.35;;;5.53;;
77409;SDS011;66481;51.332;22.804;2023-07-31T00:43:31;6.10;;;5.45;;
77409;SDS011;66481;51.332;22.804;2023-07-31T00:47:32;6.57;;;5.68;;
77409;SDS011;66481;51.332;22.804;2023-07-31T00:51:33;6.50;;;5.43;;
77409;SDS011;66481;51.332;22.804;2023-07-31T00:55:34;6.50;;;5.85;;
77409;SDS011;66481;51.332;22.804;2023-07-31T00:59:36;8.02;;;5.45;;
77409;SDS011;66481;51.332;22.804;2023-07-31T01:03:37;8.25;;;5.70;;
77409;SDS011;66481;51.332;22.804;2023-07-31T01:07:52;6.40;;;5.30;;
77409;SDS011;66481;51.332;22.804;2023-07-31T01:11:57;7.05;;;5.97;;
77409;SDS011;66481;51.332;22.804;2023-07-31T01:16:03;7.20;;;5.82;;
77409;SDS011;66481;51.332;22.804;2023-07-31T01:20:05;6.80;;;5.70;;
77409;SDS011;66481;51.332;22.804;2023-07-31T01:28:46;6.53;;;5.78;;
77409;SDS011;66481;51.332;22.804;2023-07-31T01:32:54;6.10;;;5.50;;
77409;SDS011;66481;51.332;22.804;2023-07-31T01:36:57;7.03;;;5.35;;
77409;SDS011;66481;51.332;22.804;2023-07-31T01:40:58;9.38;;;6.00;;
77409;SDS011;66481;51.332;22.804;2023-07-31T01:44:59;8.00;;;6.45;;
77409;SDS011;66481;51.332;22.804;2023-07-31T01:49:00;7.03;;;5.15;;
77409;SDS011;66481;51.332;22.804;2023-07-31T01:53:01;6.53;;;5.63;;
77409;SDS011;66481;51.332;22.804;2023-07-31T01:57:02;6.70;;;5.75;;
77409;SDS011;66481;51.332;22.804;2023-07-31T02:01:03;7.90;;;5.80;;
77409;SDS011;66481;51.332;22.804;2023-07-31T02:05:04;8.23;;;5.50;;
77409;SDS011;66481;51.332;22.804;2023-07-31T02:09:06;5.40;;;4.90;;
77409;SDS011;66481;51.332;22.804;2023-07-31T02:13:07;6.55;;;4.85;;
77409;SDS011;66481;51.332;22.804;2023-07-31T02:17:08;8.52;;;5.78;;
77409;SDS011;66481;51.332;22.804;2023-07-31T02:21:09;6.72;;;5.65;;
77409;SDS011;66481;51.332;22.804;2023-07-31T02:25:10;8.15;;;5.70;;
77409;SDS011;66481;51.332;22.804;2023-07-31T02:29:11;6.38;;;5.72;;
77409;SDS011;66481;51.332;22.804;2023-07-31T02:33:11;5.53;;;4.40;;
77409;SDS011;66481;51.332;22.804;2023-07-31T02:37:12;6.10;;;5.47;;
77409;SDS011;66481;51.332;22.804;2023-07-31T02:41:13;5.57;;;5.07;;
77409;SDS011;66481;51.332;22.804;2023-07-31T02:45:14;6.13;;;5.00;;
77409;SDS011;66481;51.332;22.804;2023-07-31T02:49:15;6.20;;;5.60;;
77409;SDS011;66481;51.332;22.804;2023-07-31T02:53:16;6.68;;;5.50;;
77409;SDS011;66481;51.332;22.804;2023-07-31T02:57:17;8.25;;;5.18;;
77409;SDS011;66481;51.332;22.804;2023-07-31T03:01:18;6.05;;;5.45;;
77409;SDS011;66481;51.332;22.804;2023-07-31T03:05:19;7.00;;;5.18;;
77409;SDS011;66481;51.332;22.804;2023-07-31T03:09:20;8.35;;;5.28;;
77409;SDS011;66481;51.332;22.804;2023-07-31T03:13:22;6.80;;;6.20;;
77409;SDS011;66481;51.332;22.804;2023-07-31T03:17:24;6.57;;;5.88;;
77409;SDS011;66481;51.332;22.804;2023-07-31T03:21:25;5.95;;;5.25;;
77409;SDS011;66481;51.332;22.804;2023-07-31T03:25:26;6.18;;;5.20;;
77409;SDS011;66481;51.332;22.804;2023-07-31T03:29:27;6.50;;;5.28;;
77409;SDS011;66481;51.332;22.804;2023-07-31T03:33:27;5.65;;;5.15;;
77409;SDS011;66481;51.332;22.804;2023-07-31T03:37:29;7.10;;;5.47;;
77409;SDS011;66481;51.332;22.804;2023-07-31T03:41:29;6.53;;;5.88;;
77409;SDS011;66481;51.332;22.804;2023-07-31T03:45:30;5.90;;;5.22;;
77409;SDS011;66481;51.332;22.804;2023-07-31T03:49:32;6.40;;;5.57;;
77409;SDS011;66481;51.332;22.804;2023-07-31T03:53:32;6.47;;;5.03;;
77409;SDS011;66481;51.332;22.804;2023-07-31T03:57:33;5.70;;;5.10;;
77409;SDS011;66481;51.332;22.804;2023-07-31T04:01:34;6.10;;;4.72;;
77409;SDS011;66481;51.332;22.804;2023-07-31T04:05:37;6.75;;;5.22;;
77409;SDS011;66481;51.332;22.804;2023-07-31T04:09:39;6.30;;;4.43;;
77409;SDS011;66481;51.332;22.804;2023-07-31T04:13:40;5.28;;;4.25;;
77409;SDS011;66481;51.332;22.804;2023-07-31T04:17:41;5.20;;;4.70;;
77409;SDS011;66481;51.332;22.804;2023-07-31T04:21:42;5.72;;;4.80;;
77409;SDS011;66481;51.332;22.804;2023-07-31T04:25:44;5.93;;;4.80;;
77409;SDS011;66481;51.332;22.804;2023-07-31T04:29:45;6.00;;;4.55;;
77409;SDS011;66481;51.332;22.804;2023-07-31T04:33:47;5.25;;;4.75;;
77409;SDS011;66481;51.332;22.804;2023-07-31T04:37:48;6.10;;;4.65;;
77409;SDS011;66481;51.332;22.804;2023-07-31T04:41:49;4.97;;;4.05;;
77409;SDS011;66481;51.332;22.804;2023-07-31T04:45:50;5.78;;;4.20;;
77409;SDS011;66481;51.332;22.804;2023-07-31T04:49:51;5.13;;;4.50;;
77409;SDS011;66481;51.332;22.804;2023-07-31T04:53:52;8.02;;;5.28;;
77409;SDS011;66481;51.332;22.804;2023-07-31T04:57:53;6.10;;;4.25;;
77409;SDS011;66481;51.332;22.804;2023-07-31T05:01:54;5.88;;;4.90;;
77409;SDS011;66481;51.332;22.804;2023-07-31T05:05:55;5.88;;;4.30;;
77409;SDS011;66481;51.332;22.804;2023-07-31T05:09:56;4.38;;;3.97;;
77409;SDS011;66481;51.332;22.804;2023-07-31T05:13:57;4.15;;;3.72;;
77409;SDS011;66481;51.332;22.804;2023-07-31T05:17:58;4.70;;;3.90;;
77409;SDS011;66481;51.332;22.804;2023-07-31T05:22:00;5.43;;;4.35;;
77409;SDS011;66481;51.332;22.804;2023-07-31T05:26:07;5.55;;;4.32;;
77409;SDS011;66481;51.332;22.804;2023-07-31T05:30:12;4.63;;;4.18;;
77409;SDS011;66481;51.332;22.804;2023-07-31T05:34:14;5.43;;;4.30;;
77409;SDS011;66481;51.332;22.804;2023-07-31T05:38:15;7.25;;;4.32;;
77409;SDS011;66481;51.332;22.804;2023-07-31T05:42:16;6.25;;;4.43;;
77409;SDS011;66481;51.332;22.804;2023-07-31T05:46:17;4.47;;;4.05;;
77409;SDS011;66481;51.332;22.804;2023-07-31T05:50:18;5.75;;;4.28;;
77409;SDS011;66481;51.332;22.804;2023-07-31T05:54:20;8.13;;;4.57;;
77409;SDS011;66481;51.332;22.804;2023-07-31T05:58:21;4.85;;;4.35;;
77409;SDS011;66481;51.332;22.804;2023-07-31T06:02:22;4.20;;;3.55;;
77409;SDS011;66481;51.332;22.804;2023-07-31T06:06:24;5.07;;;4.57;;
77409;SDS011;66481;51.332;22.804;2023-07-31T06:10:25;5.13;;;4.57;;
77409;SDS011;66481;51.332;22.804;2023-07-31T06:14:26;4.38;;;3.92;;
77409;SDS011;66481;51.332;22.804;2023-07-31T06:18:27;6.82;;;4.35;;
77409;SDS011;66481;51.332;22.804;2023-07-31T06:22:28;6.25;;;4.00;;
77409;SDS011;66481;51.332;22.804;2023-07-31T06:26:29;6.20;;;3.72;;
77409;SDS011;66481;51.332;22.804;2023-07-31T06:30:30;6.45;;;3.70;;
77409;SDS011;66481;51.332;22.804;2023-07-31T06:34:31;4.65;;;4.13;;
77409;SDS011;66481;51.332;22.804;2023-07-31T06:38:32;4.85;;;4.05;;
77409;SDS011;66481;51.332;22.804;2023-07-31T06:42:33;6.28;;;3.38;;
77409;SDS011;66481;51.332;22.804;2023-07-31T06:46:34;3.75;;;3.30;;
77409;SDS011;66481;51.332;22.804;2023-07-31T06:50:35;5.20;;;3.72;;
77409;SDS011;66481;51.332;22.804;2023-07-31T06:54:36;4.03;;;3.17;;
77409;SDS011;66481;51.332;22.804;2023-07-31T06:58:39;5.03;;;4.38;;
77409;SDS011;66481;51.332;22.804;2023-07-31T07:02:41;6.15;;;4.38;;
77409;SDS011;66481;51.332;22.804;2023-07-31T07:06:42;4.60;;;3.72;;
77409;SDS011;66481;51.332;22.804;2023-07-31T07:10:43;5.78;;;3.65;;
77409;SDS011;66481;51.332;22.804;2023-07-31T07:14:44;6.45;;;3.47;;
77409;SDS011;66481;51.332;22.804;2023-07-31T07:18:47;4.38;;;3.70;;
77409;SDS011;66481;51.332;22.804;2023-07-31T07:22:48;5.55;;;3.97;;
77409;SDS011;66481;51.332;22.804;2023-07-31T07:26:49;4.15;;;3.75;;
77409;SDS011;66481;51.332;22.804;2023-07-31T07:30:53;5.28;;;3.92;;
77409;SDS011;66481;51.332;22.804;2023-07-31T07:34:56;4.70;;;3.75;;
77409;SDS011;66481;51.332;22.804;2023-07-31T07:38:58;7.35;;;3.95;;
77409;SDS011;66481;51.332;22.804;2023-07-31T07:42:59;8.43;;;3.67;;
77409;SDS011;66481;51.332;22.804;2023-07-31T07:51:01;4.40;;;3.75;;
77409;SDS011;66481;51.332;22.804;2023-07-31T07:55:03;4.53;;;3.70;;
77409;SDS011;66481;51.332;22.804;2023-07-31T08:03:05;4.55;;;3.53;;
77409;SDS011;66481;51.332;22.804;2023-07-31T08:07:07;3.65;;;3.28;;
77409;SDS011;66481;51.332;22.804;2023-07-31T08:11:08;5.43;;;3.13;;
77409;SDS011;66481;51.332;22.804;2023-07-31T08:15:09;4.70;;;3.03;;
77409;SDS011;66481;51.332;22.804;2023-07-31T08:19:10;4.38;;;3.13;;
77409;SDS011;66481;51.332;22.804;2023-07-31T08:23:11;4.18;;;3.20;;
77409;SDS011;66481;51.332;22.804;2023-07-31T08:27:12;5.18;;;3.53;;
77409;SDS011;66481;51.332;22.804;2023-07-31T08:31:13;5.00;;;3.22;;
77409;SDS011;66481;51.332;22.804;2023-07-31T08:35:14;6.53;;;3.28;;
77409;SDS011;66481;51.332;22.804;2023-07-31T08:39:16;5.10;;;2.90;;
77409;SDS011;66481;51.332;22.804;2023-07-31T08:43:17;3.88;;;2.50;;
77409;SDS011;66481;51.332;22.804;2023-07-31T08:47:19;3.40;;;2.70;;
77409;SDS011;66481;51.332;22.804;2023-07-31T08:51:21;3.25;;;2.95;;
77409;SDS011;66481;51.332;22.804;2023-07-31T08:55:22;3.38;;;2.80;;
77409;SDS011;66481;51.332;22.804;2023-07-31T08:59:25;5.28;;;2.80;;
77409;SDS011;66481;51.332;22.804;2023-07-31T09:03:34;3.55;;;2.70;;
77409;SDS011;66481;51.332;22.804;2023-07-31T09:07:36;3.92;;;3.10;;
77409;SDS011;66481;51.332;22.804;2023-07-31T09:11:38;3.75;;;3.13;;
77409;SDS011;66481;51.332;22.804;2023-07-31T09:15:39;3.80;;;2.90;;
77409;SDS011;66481;51.332;22.804;2023-07-31T09:19:41;3.20;;;2.53;;
77409;SDS011;66481;51.332;22.804;2023-07-31T09:23:43;3.85;;;2.90;;
77409;SDS011;66481;51.332;22.804;2023-07-31T09:28:04;4.32;;;3.08;;
77409;SDS011;66481;51.332;22.804;2023-07-31T09:32:15;5.90;;;3.53;;
77409;SDS011;66481;51.332;22.804;2023-07-31T09:36:17;8.60;;;3.05;;
77409;SDS011;66481;51.332;22.804;2023-07-31T09:40:24;3.38;;;3.05;;
77409;SDS011;66481;51.332;22.804;2023-07-31T09:44:47;3.83;;;3.42;;
77409;SDS011;66481;51.332;22.804;2023-07-31T09:48:48;4.60;;;4.20;;
77409;SDS011;66481;51.332;22.804;2023-07-31T09:52:49;4.45;;;3.42;;
77409;SDS011;66481;51.332;22.804;2023-07-31T09:56:52;6.78;;;5.50;;
77409;SDS011;66481;51.332;22.804;2023-07-31T10:00:55;5.75;;;4.95;;
77409;SDS011;66481;51.332;22.804;2023-07-31T10:05:01;5.10;;;4.43;;
77409;SDS011;66481;51.332;22.804;2023-07-31T10:09:08;3.58;;;2.88;;
77409;SDS011;66481;51.332;22.804;2023-07-31T10:13:12;4.80;;;3.22;;
77409;SDS011;66481;51.332;22.804;2023-07-31T10:17:14;3.85;;;3.33;;
77409;SDS011;66481;51.332;22.804;2023-07-31T10:21:17;3.25;;;2.45;;
77409;SDS011;66481;51.332;22.804;2023-07-31T10:25:18;3.92;;;3.08;;
77409;SDS011;66481;51.332;22.804;2023-07-31T10:29:20;3.03;;;2.63;;
77409;SDS011;66481;51.332;22.804;2023-07-31T10:37:36;4.80;;;3.20;;
77409;SDS011;66481;51.332;22.804;2023-07-31T10:41:39;3.33;;;2.95;;
77409;SDS011;66481;51.332;22.804;2023-07-31T10:45:44;4.32;;;2.50;;
77409;SDS011;66481;51.332;22.804;2023-07-31T10:49:45;3.30;;;1.80;;
77409;SDS011;66481;51.332;22.804;2023-07-31T10:53:47;2.53;;;2.33;;
77409;SDS011;66481;51.332;22.804;2023-07-31T10:57:48;2.85;;;2.15;;
77409;SDS011;66481;51.332;22.804;2023-07-31T11:01:55;2.83;;;2.05;;
77409;SDS011;66481;51.332;22.804;2023-07-31T11:06:03;3.08;;;2.00;;
77409;SDS011;66481;51.332;22.804;2023-07-31T11:10:04;2.72;;;2.53;;
77409;SDS011;66481;51.332;22.804;2023-07-31T11:14:06;3.22;;;2.70;;
77409;SDS011;66481;51.332;22.804;2023-07-31T11:18:11;2.53;;;2.33;;
77409;SDS011;66481;51.332;22.804;2023-07-31T11:22:12;3.40;;;2.42;;
77409;SDS011;66481;51.332;22.804;2023-07-31T11:26:14;2.63;;;2.40;;
77409;SDS011;66481;51.332;22.804;2023-07-31T11:30:15;4.72;;;2.70;;
77409;SDS011;66481;51.332;22.804;2023-07-31T11:34:20;3.75;;;2.72;;
77409;SDS011;66481;51.332;22.804;2023-07-31T11:38:25;3.00;;;2.70;;
77409;SDS011;66481;51.332;22.804;2023-07-31T11:42:28;3.00;;;2.58;;
77409;SDS011;66481;51.332;22.804;2023-07-31T11:46:32;3.13;;;2.22;;
77409;SDS011;66481;51.332;22.804;2023-07-31T11:50:33;2.60;;;2.38;;
77409;SDS011;66481;51.332;22.804;2023-07-31T11:54:36;2.53;;;2.33;;
77409;SDS011;66481;51.332;22.804;2023-07-31T11:58:38;5.38;;;3.05;;
77409;SDS011;66481;51.332;22.804;2023-07-31T12:02:41;2.85;;;2.45;;
77409;SDS011;66481;51.332;22.804;2023-07-31T12:06:43;3.45;;;2.50;;
77409;SDS011;66481;51.332;22.804;2023-07-31T12:10:45;2.72;;;2.15;;
77409;SDS011;66481;51.332;22.804;2023-07-31T12:14:48;2.67;;;2.47;;
77409;SDS011;66481;51.332;22.804;2023-07-31T12:18:50;4.55;;;2.60;;
77409;SDS011;66481;51.332;22.804;2023-07-31T12:22:51;3.00;;;2.70;;
77409;SDS011;66481;51.332;22.804;2023-07-31T12:26:52;3.00;;;2.50;;
77409;SDS011;66481;51.332;22.804;2023-07-31T12:30:59;3.17;;;2.50;;
77409;SDS011;66481;51.332;22.804;2023-07-31T12:35:05;2.80;;;2.50;;
77409;SDS011;66481;51.332;22.804;2023-07-31T12:39:07;4.53;;;3.10;;
77409;SDS011;66481;51.332;22.804;2023-07-31T12:43:08;6.05;;;2.97;;
77409;SDS011;66481;51.332;22.804;2023-07-31T12:47:09;4.15;;;2.45;;
77409;SDS011;66481;51.332;22.804;2023-07-31T12:51:10;4.35;;;2.83;;
77409;SDS011;66481;51.332;22.804;2023-07-31T12:55:14;3.95;;;2.65;;
77409;SDS011;66481;51.332;22.804;2023-07-31T12:59:15;3.88;;;2.55;;
77409;SDS011;66481;51.332;22.804;2023-07-31T13:03:16;4.13;;;2.58;;
77409;SDS011;66481;51.332;22.804;2023-07-31T13:07:17;3.42;;;3.08;;
77409;SDS011;66481;51.332;22.804;2023-07-31T13:11:18;4.95;;;2.75;;
77409;SDS011;66481;51.332;22.804;2023-07-31T13:15:19;3.70;;;2.28;;
77409;SDS011;66481;51.332;22.804;2023-07-31T13:19:20;3.60;;;2.83;;
77409;SDS011;66481;51.332;22.804;2023-07-31T13:23:21;3.15;;;2.50;;
77409;SDS011;66481;51.332;22.804;2023-07-31T13:27:22;3.22;;;2.92;;
77409;SDS011;66481;51.332;22.804;2023-07-31T13:31:24;3.72;;;2.55;;
77409;SDS011;66481;51.332;22.804;2023-07-31T13:35:25;4.05;;;2.65;;
77409;SDS011;66481;51.332;22.804;2023-07-31T13:39:26;3.70;;;2.00;;
77409;SDS011;66481;51.332;22.804;2023-07-31T13:43:27;3.97;;;2.78;;
77409;SDS011;66481;51.332;22.804;2023-07-31T13:47:28;5.72;;;2.47;;
77409;SDS011;66481;51.332;22.804;2023-07-31T13:51:29;3.67;;;2.58;;
77409;SDS011;66481;51.332;22.804;2023-07-31T13:55:30;8.75;;;2.85;;
77409;SDS011;66481;51.332;22.804;2023-07-31T13:59:32;5.90;;;2.80;;
77409;SDS011;66481;51.332;22.804;2023-07-31T14:03:35;4.63;;;2.50;;
77409;SDS011;66481;51.332;22.804;2023-07-31T14:07:36;3.30;;;2.45;;
77409;SDS011;66481;51.332;22.804;2023-07-31T14:11:37;3.25;;;2.75;;
77409;SDS011;66481;51.332;22.804;2023-07-31T14:15:39;3.05;;;2.75;;
77409;SDS011;66481;51.332;22.804;2023-07-31T14:19:42;9.05;;;2.60;;
77409;SDS011;66481;51.332;22.804;2023-07-31T14:23:43;2.90;;;2.60;;
77409;SDS011;66481;51.332;22.804;2023-07-31T14:27:44;3.35;;;2.60;;
77409;SDS011;66481;51.332;22.804;2023-07-31T14:31:46;3.75;;;3.10;;
77409;SDS011;66481;51.332;22.804;2023-07-31T14:35:47;4.07;;;2.70;;
77409;SDS011;66481;51.332;22.804;2023-07-31T14:39:49;4.68;;;3.13;;
77409;SDS011;66481;51.332;22.804;2023-07-31T14:43:51;5.93;;;3.90;;
77409;SDS011;66481;51.332;22.804;2023-07-31T14:47:52;5.10;;;3.80;;
77409;SDS011;66481;51.332;22.804;2023-07-31T14:51:53;4.35;;;3.95;;
77409;SDS011;66481;51.332;22.804;2023-07-31T14:56:02;5.30;;;3.72;;
77409;SDS011;66481;51.332;22.804;2023-07-31T15:00:03;4.80;;;3.80;;
77409;SDS011;66481;51.332;22.804;2023-07-31T15:04:08;6.15;;;3.85;;
77409;SDS011;66481;51.332;22.804;2023-07-31T15:08:09;5.20;;;3.70;;
77409;SDS011;66481;51.332;22.804;2023-07-31T15:12:10;4.63;;;2.83;;
77409;SDS011;66481;51.332;22.804;2023-07-31T15:16:11;3.67;;;3.00;;
77409;SDS011;66481;51.332;22.804;2023-07-31T15:20:12;3.67;;;2.63;;
77409;SDS011;66481;51.332;22.804;2023-07-31T15:24:13;3.35;;;2.58;;
77409;SDS011;66481;51.332;22.804;2023-07-31T15:28:14;4.40;;;2.78;;
77409;SDS011;66481;51.332;22.804;2023-07-31T15:32:15;4.15;;;2.80;;
77409;SDS011;66481;51.332;22.804;2023-07-31T15:36:16;5.95;;;2.45;;
77409;SDS011;66481;51.332;22.804;2023-07-31T15:40:17;5.80;;;2.60;;
77409;SDS011;66481;51.332;22.804;2023-07-31T15:44:18;3.72;;;2.80;;
77409;SDS011;66481;51.332;22.804;2023-07-31T15:48:22;4.43;;;2.50;;
77409;SDS011;66481;51.332;22.804;2023-07-31T15:52:23;3.33;;;2.20;;
77409;SDS011;66481;51.332;22.804;2023-07-31T15:56:24;4.70;;;2.50;;
77409;SDS011;66481;51.332;22.804;2023-07-31T16:00:25;4.20;;;2.20;;
77409;SDS011;66481;51.332;22.804;2023-07-31T16:04:27;4.15;;;2.78;;
77409;SDS011;66481;51.332;22.804;2023-07-31T16:08:28;3.35;;;1.88;;
77409;SDS011;66481;51.332;22.804;2023-07-31T16:12:29;4.80;;;2.25;;
77409;SDS011;66481;51.332;22.804;2023-07-31T16:16:31;3.53;;;2.30;;
77409;SDS011;66481;51.332;22.804;2023-07-31T16:20:32;4.70;;;2.30;;
77409;SDS011;66481;51.332;22.804;2023-07-31T16:24:33;4.28;;;2.35;;
77409;SDS011;66481;51.332;22.804;2023-07-31T16:28:35;3.88;;;2.10;;
77409;SDS011;66481;51.332;22.804;2023-07-31T16:32:36;2.10;;;1.70;;
77409;SDS011;66481;51.332;22.804;2023-07-31T16:36:37;2.80;;;2.00;;
77409;SDS011;66481;51.332;22.804;2023-07-31T16:40:38;4.18;;;2.45;;
77409;SDS011;66481;51.332;22.804;2023-07-31T16:44:39;2.22;;;1.95;;
77409;SDS011;66481;51.332;22.804;2023-07-31T16:48:40;4.22;;;2.50;;
77409;SDS011;66481;51.332;22.804;2023-07-31T16:52:41;3.05;;;2.13;;
77409;SDS011;66481;51.332;22.804;2023-07-31T16:56:43;4.88;;;2.65;;
77409;SDS011;66481;51.332;22.804;2023-07-31T17:00:44;2.63;;;2.42;;
77409;SDS011;66481;51.332;22.804;2023-07-31T17:04:46;5.15;;;2.42;;
77409;SDS011;66481;51.332;22.804;2023-07-31T17:08:47;4.18;;;2.65;;
77409;SDS011;66481;51.332;22.804;2023-07-31T17:12:48;4.50;;;2.72;;
77409;SDS011;66481;51.332;22.804;2023-07-31T17:16:49;3.08;;;2.15;;
77409;SDS011;66481;51.332;22.804;2023-07-31T17:20:50;4.45;;;2.90;;
77409;SDS011;66481;51.332;22.804;2023-07-31T17:40:24;5.53;;;3.42;;
77409;SDS011;66481;51.332;22.804;2023-07-31T17:44:26;6.10;;;3.45;;
77409;SDS011;66481;51.332;22.804;2023-07-31T17:48:27;9.77;;;4.22;;
77409;SDS011;66481;51.332;22.804;2023-07-31T17:52:28;42.03;;;21.48;;
77409;SDS011;66481;51.332;22.804;2023-07-31T17:56:29;24.38;;;13.45;;
77409;SDS011;66481;51.332;22.804;2023-07-31T18:00:32;9.73;;;6.05;;
77409;SDS011;66481;51.332;22.804;2023-07-31T18:04:33;29.73;;;16.13;;
77409;SDS011;66481;51.332;22.804;2023-07-31T18:08:35;5.00;;;3.85;;
77409;SDS011;66481;51.332;22.804;2023-07-31T18:12:37;8.43;;;5.32;;
77409;SDS011;66481;51.332;22.804;2023-07-31T18:16:38;15.55;;;6.05;;
77409;SDS011;66481;51.332;22.804;2023-07-31T18:20:39;9.52;;;5.05;;
77409;SDS011;66481;51.332;22.804;2023-07-31T18:24:41;11.35;;;5.72;;
77409;SDS011;66481;51.332;22.804;2023-07-31T18:28:42;11.65;;;4.50;;
77409;SDS011;66481;51.332;22.804;2023-07-31T18:32:43;9.35;;;4.65;;
77409;SDS011;66481;51.332;22.804;2023-07-31T18:36:44;8.60;;;5.07;;
77409;SDS011;66481;51.332;22.804;2023-07-31T18:40:45;13.40;;;6.13;;
77409;SDS011;66481;51.332;22.804;2023-07-31T18:44:46;8.68;;;5.75;;
77409;SDS011;66481;51.332;22.804;2023-07-31T18:48:47;13.55;;;6.95;;
77409;SDS011;66481;51.332;22.804;2023-07-31T18:52:48;10.13;;;5.55;;
77409;SDS011;66481;51.332;22.804;2023-07-31T18:56:49;10.15;;;5.40;;
77409;SDS011;66481;51.332;22.804;2023-07-31T19:00:50;8.02;;;4.25;;
77409;SDS011;66481;51.332;22.804;2023-07-31T19:04:51;10.10;;;9.05;;
77409;SDS011;66481;51.332;22.804;2023-07-31T19:08:52;10.57;;;5.60;;
77409;SDS011;66481;51.332;22.804;2023-07-31T19:12:54;20.05;;;6.95;;
77409;SDS011;66481;51.332;22.804;2023-07-31T19:16:55;17.05;;;7.15;;
77409;SDS011;66481;51.332;22.804;2023-07-31T19:20:56;13.77;;;8.07;;
77409;SDS011;66481;51.332;22.804;2023-07-31T19:24:57;13.23;;;8.30;;
77409;SDS011;66481;51.332;22.804;2023-07-31T19:28:58;10.93;;;6.28;;
77409;SDS011;66481;51.332;22.804;2023-07-31T19:33:00;10.85;;;6.10;;
77409;SDS011;66481;51.332;22.804;2023-07-31T19:37:01;15.70;;;8.05;;
77409;SDS011;66481;51.332;22.804;2023-07-31T19:41:02;12.50;;;7.88;;
77409;SDS011;66481;51.332;22.804;2023-07-31T19:45:04;16.95;;;9.77;;
77409;SDS011;66481;51.332;22.804;2023-07-31T19:49:06;20.92;;;10.50;;
77409;SDS011;66481;51.332;22.804;2023-07-31T19:53:07;18.95;;;10.05;;
77409;SDS011;66481;51.332;22.804;2023-07-31T19:57:09;24.02;;;11.40;;
77409;SDS011;66481;51.332;22.804;2023-07-31T20:01:11;32.75;;;10.82;;
77409;SDS011;66481;51.332;22.804;2023-07-31T20:05:13;17.17;;;10.15;;
77409;SDS011;66481;51.332;22.804;2023-07-31T20:09:15;15.90;;;7.45;;
77409;SDS011;66481;51.332;22.804;2023-07-31T20:13:17;13.35;;;6.47;;
77409;SDS011;66481;51.332;22.804;2023-07-31T20:17:23;14.15;;;7.68;;
77409;SDS011;66481;51.332;22.804;2023-07-31T20:21:28;14.23;;;7.80;;
77409;SDS011;66481;51.332;22.804;2023-07-31T20:25:29;16.48;;;9.35;;
77409;SDS011;66481;51.332;22.804;2023-07-31T20:29:33;17.35;;;8.90;;
77409;SDS011;66481;51.332;22.804;2023-07-31T20:33:35;16.08;;;8.10;;
77409;SDS011;66481;51.332;22.804;2023-07-31T20:37:37;13.20;;;6.68;;
77409;SDS011;66481;51.332;22.804;2023-07-31T20:41:39;12.05;;;7.78;;
77409;SDS011;66481;51.332;22.804;2023-07-31T20:45:40;15.55;;;7.63;;
77409;SDS011;66481;51.332;22.804;2023-07-31T20:49:42;15.93;;;8.13;;
77409;SDS011;66481;51.332;22.804;2023-07-31T20:53:44;12.15;;;8.00;;
77409;SDS011;66481;51.332;22.804;2023-07-31T20:57:46;10.52;;;7.50;;
77409;SDS011;66481;51.332;22.804;2023-07-31T21:01:48;9.43;;;7.03;;
77409;SDS011;66481;51.332;22.804;2023-07-31T21:05:50;12.98;;;8.15;;
77409;SDS011;66481;51.332;22.804;2023-07-31T21:13:54;12.82;;;7.45;;
77409;SDS011;66481;51.332;22.804;2023-07-31T21:17:58;12.75;;;8.02;;
77409;SDS011;66481;51.332;22.804;2023-07-31T21:22:00;10.52;;;6.70;;
77409;SDS011;66481;51.332;22.804;2023-07-31T21:26:02;11.73;;;7.85;;
77409;SDS011;66481;51.332;22.804;2023-07-31T21:30:03;11.50;;;6.57;;
77409;SDS011;66481;51.332;22.804;2023-07-31T21:34:05;11.07;;;6.93;;
77409;SDS011;66481;51.332;22.804;2023-07-31T21:38:06;12.57;;;6.63;;
77409;SDS011;66481;51.332;22.804;2023-07-31T21:42:09;9.15;;;6.68;;
77409;SDS011;66481;51.332;22.804;2023-07-31T21:46:10;9.30;;;6.40;;
77409;SDS011;66481;51.332;22.804;2023-07-31T21:50:12;9.65;;;6.70;;
77409;SDS011;66481;51.332;22.804;2023-07-31T21:54:14;9.18;;;7.32;;
77409;SDS011;66481;51.332;22.804;2023-07-31T21:58:15;10.52;;;7.20;;
77409;SDS011;66481;51.332;22.804;2023-07-31T22:02:16;8.63;;;6.70;;
77409;SDS011;66481;51.332;22.804;2023-07-31T22:06:18;10.07;;;6.63;;
77409;SDS011;66481;51.332;22.804;2023-07-31T22:10:19;8.57;;;5.90;;
77409;SDS011;66481;51.332;22.804;2023-07-31T22:14:20;12.90;;;6.05;;
77409;SDS011;66481;51.332;22.804;2023-07-31T22:18:21;11.85;;;5.85;;
77409;SDS011;66481;51.332;22.804;2023-07-31T22:22:22;7.32;;;5.97;;
77409;SDS011;66481;51.332;22.804;2023-07-31T22:26:24;9.10;;;6.85;;
77409;SDS011;66481;51.332;22.804;2023-07-31T22:30:25;10.82;;;6.28;;
77409;SDS011;66481;51.332;22.804;2023-07-31T22:34:26;9.50;;;6.13;;
77409;SDS011;66481;51.332;22.804;2023-07-31T22:38:27;10.88;;;6.35;;
77409;SDS011;66481;51.332;22.804;2023-07-31T22:42:28;10.00;;;6.75;;
77409;SDS011;66481;51.332;22.804;2023-07-31T22:46:29;10.07;;;6.68;;
77409;SDS011;66481;51.332;22.804;2023-07-31T22:50:31;8.63;;;7.03;;
77409;SDS011;66481;51.332;22.804;2023-07-31T22:54:32;8.63;;;6.57;;
77409;SDS011;66481;51.332;22.804;2023-07-31T22:58:34;10.15;;;6.60;;
77409;SDS011;66481;51.332;22.804;2023-07-31T23:02:36;9.23;;;6.72;;
77409;SDS011;66481;51.332;22.804;2023-07-31T23:06:37;11.60;;;6.47;;
77409;SDS011;66481;51.332;22.804;2023-07-31T23:10:38;8.13;;;6.18;;
77409;SDS011;66481;51.332;22.804;2023-07-31T23:14:39;10.13;;;6.07;;
77409;SDS011;66481;51.332;22.804;2023-07-31T23:18:40;11.27;;;7.03;;
77409;SDS011;66481;51.332;22.804;2023-07-31T23:22:43;10.63;;;6.55;;
77409;SDS011;66481;51.332;22.804;2023-07-31T23:26:44;13.15;;;6.72;;
77409;SDS011;66481;51.332;22.804;2023-07-31T23:30:45;8.60;;;5.75;;
77409;SDS011;66481;51.332;22.804;2023-07-31T23:34:47;9.68;;;6.03;;
77409;SDS011;66481;51.332;22.804;2023-07-31T23:38:48;7.80;;;5.75;;
77409;SDS011;66481;51.332;22.804;2023-07-31T23:42:49;9.23;;;5.93;;
77409;SDS011;66481;51.332;22.804;2023-07-31T23:46:50;9.85;;;6.60;;
